Time;durP1;ratioP1;P1;durP2;ratioP2;P2;SDS_P1;SDS_P2;PMS_P1;PMS_P2;Temp;Humidity;BMP_temperature;BMP_pressure;BME280_temperature;BME280_humidity;BME280_pressure;Samples;Min_cycle;Max_cycle;Signal;HPM_P1;HPM_P2
2022/12/27 00:01:58;;;;;;;21.47;18.63;;;;;;;;;;5048183;28;20301;-84
2022/12/27 00:04:24;;;;;;;22.33;17.97;;;;;;;;;;5058027;28;20261;-84
2022/12/27 00:06:50;;;;;;;20.43;17.40;;;;;;;;;;5057342;28;20736;-83
2022/12/27 00:09:16;;;;;;;23.33;18.73;;;;;;;;;;5043490;28;20186;-82
2022/12/27 00:11:42;;;;;;;23.80;18.57;;;;;;;;;;5056412;28;20178;-82
2022/12/27 00:14:10;;;;;;;20.43;17.53;;;;;;;;;;5049398;28;20186;-82
2022/12/27 00:16:36;;;;;;;19.70;17.03;;;;;;;;;;5050475;28;20218;-84
2022/12/27 00:19:03;;;;;;;20.03;16.10;;;;;;;;;;5049137;28;20186;-83
2022/12/27 00:21:29;;;;;;;22.73;16.53;;;;;;;;;;5049016;28;20247;-81
2022/12/27 00:23:56;;;;;;;19.67;16.10;;;;;;;;;;5061265;28;20185;-84
2022/12/27 00:26:26;;;;;;;18.17;16.13;;;;;;;;;;5051348;28;20241;-85
2022/12/27 00:28:53;;;;;;;19.93;16.27;;;;;;;;;;5047275;28;20178;-84
2022/12/27 00:31:20;;;;;;;21.27;16.50;;;;;;;;;;5062075;28;20264;-83
2022/12/27 00:33:47;;;;;;;17.93;15.13;;;;;;;;;;5053292;28;20238;-80
2022/12/27 00:36:14;;;;;;;17.67;15.23;;;;;;;;;;5051961;28;20179;-80
2022/12/27 00:38:40;;;;;;;17.60;15.43;;;;;;;;;;5058220;28;20178;-81
2022/12/27 00:41:06;;;;;;;17.67;15.33;;;;;;;;;;5056040;28;20302;-84
2022/12/27 00:43:33;;;;;;;21.53;15.90;;;;;;;;;;5063542;28;20182;-86
2022/12/27 00:45:59;;;;;;;18.30;14.53;;;;;;;;;;5059819;28;20193;-82
2022/12/27 00:48:25;;;;;;;16.70;15.00;;;;;;;;;;5065392;28;20210;-82
2022/12/27 00:50:56;;;;;;;18.57;15.70;;;;;;;;;;5067606;28;20173;-80
2022/12/27 00:53:22;;;;;;;17.93;15.73;;;;;;;;;;5086923;28;20185;-85
2022/12/27 00:55:48;;;;;;;21.30;16.50;;;;;;;;;;5067724;28;20185;-84
2022/12/27 00:58:14;;;;;;;18.63;15.80;;;;;;;;;;5064377;28;20189;-87
2022/12/27 01:00:40;;;;;;;17.53;14.93;;;;;;;;;;5049313;28;20758;-84
2022/12/27 01:03:06;;;;;;;18.43;15.43;;;;;;;;;;5034047;28;20178;-84
2022/12/27 01:05:32;;;;;;;17.73;15.77;;;;;;;;;;5055234;28;20178;-84
2022/12/27 01:07:58;;;;;;;20.33;15.73;;;;;;;;;;5051673;28;20259;-81
2022/12/27 01:10:24;;;;;;;20.47;15.70;;;;;;;;;;5054392;28;20646;-83
2022/12/27 01:12:50;;;;;;;20.60;16.50;;;;;;;;;;5053557;28;20260;-80
2022/12/27 01:15:16;;;;;;;18.73;14.80;;;;;;;;;;5052468;28;20277;-82
2022/12/27 01:17:42;;;;;;;16.73;14.83;;;;;;;;;;5057178;28;20185;-84
2022/12/27 01:20:08;;;;;;;19.03;15.60;;;;;;;;;;5063304;28;20546;-83
2022/12/27 01:22:34;;;;;;;18.50;15.60;;;;;;;;;;5056204;28;20685;-84
2022/12/27 01:25:00;;;;;;;16.47;13.57;;;;;;;;;;5044838;28;20182;-84
2022/12/27 01:27:26;;;;;;;14.90;13.40;;;;;;;;;;5038844;28;20217;-83
2022/12/27 01:29:52;;;;;;;16.23;13.70;;;;;;;;;;5074016;28;20221;-80
2022/12/27 01:32:18;;;;;;;17.90;14.17;;;;;;;;;;5061307;28;20275;-84
2022/12/27 01:34:44;;;;;;;15.77;13.63;;;;;;;;;;5055245;28;20232;-81
2022/12/27 01:37:10;;;;;;;14.50;13.00;;;;;;;;;;5056554;28;20181;-85
2022/12/27 01:39:36;;;;;;;17.17;14.53;;;;;;;;;;5050678;28;20190;-82
2022/12/27 01:44:50;;;;;;;16.20;14.47;;;;;;;;;;5060556;28;20186;-80
2022/12/27 01:47:16;;;;;;;15.73;13.23;;;;;;;;;;5067077;28;20584;-83
2022/12/27 01:49:46;;;;;;;14.90;13.30;;;;;;;;;;5049092;28;20182;-81
2022/12/27 01:52:13;;;;;;;17.50;14.53;;;;;;;;;;5047066;28;20182;-82
2022/12/27 01:54:39;;;;;;;15.70;13.60;;;;;;;;;;5057703;28;20190;-83
2022/12/27 01:57:05;;;;;;;17.17;13.37;;;;;;;;;;5055574;28;20548;-81
2022/12/27 01:59:32;;;;;;;17.10;13.90;;;;;;;;;;5091004;28;20197;-84
2022/12/27 02:01:59;;;;;;;15.23;12.73;;;;;;;;;;5051438;28;20186;-85
2022/12/27 02:04:27;;;;;;;13.97;12.17;;;;;;;;;;5060226;28;20181;-86
2022/12/27 02:06:53;;;;;;;14.37;11.97;;;;;;;;;;5064013;28;20285;-81
2022/12/27 02:09:19;;;;;;;14.30;11.97;;;;;;;;;;5066768;28;20177;-81
2022/12/27 02:11:50;;;;;;;13.23;11.80;;;;;;;;;;5053113;28;20174;-81
2022/12/27 02:14:29;;;;;;;13.33;10.97;;;;;;;;;;5056404;28;20193;-82
2022/12/27 02:16:56;;;;;;;12.87;11.03;;;;;;;;;;5058504;28;20219;-82
2022/12/27 02:19:31;;;;;;;12.40;11.00;;;;;;;;;;5060717;28;20182;-81
2022/12/27 02:22:13;;;;;;;11.80;10.60;;;;;;;;;;5052374;28;20694;-82
2022/12/27 02:24:58;;;;;;;12.80;10.27;;;;;;;;;;5051404;28;20631;-81
2022/12/27 02:27:37;;;;;;;12.47;9.87;;;;;;;;;;5049291;28;21235;-83
2022/12/27 02:30:05;;;;;;;11.87;10.53;;;;;;;;;;5032681;28;20273;-80
2022/12/27 02:32:37;;;;;;;12.37;10.10;;;;;;;;;;5053448;28;20170;-86
2022/12/27 02:35:09;;;;;;;13.53;10.87;;;;;;;;;;5055435;28;20196;-83
2022/12/27 02:37:38;;;;;;;12.00;10.30;;;;;;;;;;5044075;28;20261;-82
2022/12/27 02:54:10;;;;;;;14.20;12.43;;;;;;;;;;5069243;28;20700;-83
2022/12/27 02:59:35;;;;;;;14.87;11.90;;;;;;;;;;5061594;28;20215;-84
2022/12/27 03:05:06;;;;;;;12.30;11.00;;;;;;;;;;5043186;28;20188;-80
2022/12/27 03:07:50;;;;;;;14.10;12.60;;;;;;;;;;5050914;28;20209;-85
2022/12/27 03:16:54;;;;;;;14.57;12.30;;;;;;;;;;5041195;28;20372;-82
2022/12/27 03:25:27;;;;;;;7.40;5.60;;;;;;;;;;5019435;28;20619;-81
2022/12/27 03:33:35;;;;;;;6.43;3.57;;;;;;;;;;5030299;28;20233;-80
2022/12/27 03:38:54;;;;;;;5.97;3.33;;;;;;;;;;5034556;28;20199;-84
2022/12/27 03:44:23;;;;;;;5.13;2.70;;;;;;;;;;5038670;28;20262;-84
2022/12/27 03:46:53;;;;;;;8.87;2.77;;;;;;;;;;5036635;28;20206;-79
2022/12/27 03:49:48;;;;;;;10.60;2.60;;;;;;;;;;5029424;28;20223;-82
2022/12/27 03:52:17;;;;;;;4.20;2.23;;;;;;;;;;5042032;28;20185;-82
2022/12/27 03:54:45;;;;;;;3.40;1.83;;;;;;;;;;5048517;28;20228;-82
2022/12/27 03:57:13;;;;;;;5.73;2.10;;;;;;;;;;5054016;28;20181;-82
2022/12/27 03:59:39;;;;;;;4.23;2.10;;;;;;;;;;5065007;28;20263;-83
2022/12/27 04:02:07;;;;;;;6.37;2.53;;;;;;;;;;5070501;28;20185;-81
2022/12/27 04:04:34;;;;;;;5.20;1.80;;;;;;;;;;5057537;28;20194;-86
2022/12/27 04:07:00;;;;;;;3.27;1.90;;;;;;;;;;5066999;28;20293;-82
2022/12/27 04:36:53;;;;;;;8.03;2.40;;;;;;;;;;5055917;28;20189;-86
2022/12/27 04:39:19;;;;;;;9.63;2.83;;;;;;;;;;5068944;28;20200;-83
2022/12/27 04:55:57;;;;;;;9.60;2.43;;;;;;;;;;5041027;28;20244;-81
2022/12/27 04:58:23;;;;;;;7.40;2.80;;;;;;;;;;5016898;28;20197;-84
2022/12/27 05:03:34;;;;;;;8.80;2.90;;;;;;;;;;5013792;28;20197;-85
2022/12/27 05:06:01;;;;;;;12.40;2.60;;;;;;;;;;5020029;28;20178;-83
2022/12/27 05:14:01;;;;;;;16.00;3.37;;;;;;;;;;5033752;28;20603;-81
2022/12/27 05:16:28;;;;;;;11.97;3.27;;;;;;;;;;5036807;28;20272;-84
2022/12/27 05:18:54;;;;;;;12.02;3.47;;;;;;;;;;5029881;28;20431;-82
2022/12/27 05:21:20;;;;;;;12.80;3.03;;;;;;;;;;5049483;28;20185;-86
2022/12/27 05:26:31;;;;;;;11.77;3.00;;;;;;;;;;5036652;28;20268;-82
2022/12/27 05:28:58;;;;;;;12.27;3.33;;;;;;;;;;5044019;28;20214;-84
2022/12/27 05:31:25;;;;;;;15.87;4.90;;;;;;;;;;5081213;28;20177;-84
2022/12/27 05:33:51;;;;;;;16.30;5.67;;;;;;;;;;5064620;28;20229;-85
2022/12/27 05:36:18;;;;;;;17.23;6.30;;;;;;;;;;5066642;28;20173;-84
2022/12/27 05:38:44;;;;;;;14.87;5.17;;;;;;;;;;5055382;28;20181;-83
2022/12/27 05:41:10;;;;;;;16.47;4.57;;;;;;;;;;5061079;28;20547;-86
2022/12/27 05:43:36;;;;;;;14.43;4.40;;;;;;;;;;5053445;28;20194;-84
2022/12/27 05:46:06;;;;;;;14.23;4.00;;;;;;;;;;5046620;28;20186;-86
2022/12/27 05:48:33;;;;;;;12.83;3.47;;;;;;;;;;5049929;28;20206;-82
2022/12/27 05:51:03;;;;;;;12.73;3.77;;;;;;;;;;5070127;28;20212;-85
2022/12/27 05:53:29;;;;;;;12.63;3.27;;;;;;;;;;5053577;28;20229;-83
2022/12/27 05:55:56;;;;;;;15.27;3.87;;;;;;;;;;5057199;28;20190;-82
2022/12/27 05:58:22;;;;;;;12.37;3.37;;;;;;;;;;5054478;28;20219;-83
2022/12/27 06:00:48;;;;;;;11.77;4.43;;;;;;;;;;5050112;28;20703;-82
2022/12/27 06:03:14;;;;;;;9.73;3.30;;;;;;;;;;5051302;28;20281;-86
2022/12/27 06:05:40;;;;;;;14.43;4.30;;;;;;;;;;5051078;28;20197;-79
2022/12/27 06:08:06;;;;;;;16.43;4.53;;;;;;;;;;5052852;28;20209;-85
2022/12/27 06:10:32;;;;;;;16.93;4.43;;;;;;;;;;5046918;28;20280;-86
2022/12/27 06:13:01;;;;;;;12.80;3.93;;;;;;;;;;5054010;28;20183;-81
2022/12/27 06:15:27;;;;;;;12.83;3.97;;;;;;;;;;5058843;28;20188;-83
2022/12/27 06:17:53;;;;;;;13.27;3.50;;;;;;;;;;5043668;28;20174;-80
2022/12/27 06:20:20;;;;;;;16.00;3.67;;;;;;;;;;5057158;28;20186;-81
2022/12/27 06:22:46;;;;;;;13.70;4.07;;;;;;;;;;5047182;28;20201;-84
2022/12/27 06:25:13;;;;;;;17.17;3.87;;;;;;;;;;5055070;28;20229;-81
2022/12/27 06:27:39;;;;;;;18.07;4.20;;;;;;;;;;5057629;28;20210;-83
2022/12/27 06:30:06;;;;;;;16.83;3.97;;;;;;;;;;5053190;28;20174;-84
2022/12/27 06:32:32;;;;;;;13.07;4.47;;;;;;;;;;5041425;28;20178;-80
2022/12/27 06:34:58;;;;;;;16.77;4.07;;;;;;;;;;5043197;28;20259;-81
2022/12/27 06:37:24;;;;;;;17.20;3.83;;;;;;;;;;5052593;28;20666;-81
2022/12/27 06:39:50;;;;;;;14.23;4.47;;;;;;;;;;5049759;28;20183;-83
2022/12/27 06:42:16;;;;;;;14.13;4.27;;;;;;;;;;5054344;28;20179;-83
2022/12/27 06:44:42;;;;;;;17.83;4.40;;;;;;;;;;5060066;28;20205;-80
2022/12/27 06:47:08;;;;;;;12.67;4.00;;;;;;;;;;5072487;28;20209;-82
2022/12/27 06:49:34;;;;;;;22.67;4.53;;;;;;;;;;5080557;28;20279;-81
2022/12/27 06:52:00;;;;;;;16.90;4.50;;;;;;;;;;5061408;28;20194;-85
2022/12/27 06:54:26;;;;;;;17.03;4.00;;;;;;;;;;5049363;28;20177;-83
2022/12/27 06:56:54;;;;;;;15.43;4.43;;;;;;;;;;5050037;28;20186;-83
2022/12/27 06:59:20;;;;;;;16.37;4.90;;;;;;;;;;5049926;28;20185;-83
2022/12/27 07:01:46;;;;;;;16.43;4.90;;;;;;;;;;5049131;28;20182;-83
2022/12/27 07:04:12;;;;;;;17.73;4.63;;;;;;;;;;5050068;28;20185;-83
2022/12/27 07:06:38;;;;;;;20.30;4.90;;;;;;;;;;5048551;28;20205;-83
2022/12/27 07:09:04;;;;;;;17.70;4.60;;;;;;;;;;5050204;28;20638;-84
2022/12/27 07:11:35;;;;;;;17.57;4.70;;;;;;;;;;5049310;28;20239;-87
2022/12/27 07:14:01;;;;;;;15.73;3.77;;;;;;;;;;5050019;28;20186;-83
2022/12/27 07:16:28;;;;;;;12.10;4.53;;;;;;;;;;5049361;28;20178;-84
2022/12/27 07:18:55;;;;;;;19.53;4.63;;;;;;;;;;5048955;28;20698;-84
2022/12/27 07:21:22;;;;;;;11.63;3.90;;;;;;;;;;5053461;28;20627;-82
2022/12/27 07:23:48;;;;;;;14.70;3.97;;;;;;;;;;5049258;28;20229;-82
2022/12/27 07:26:16;;;;;;;19.73;4.47;;;;;;;;;;5050771;28;20225;-84
2022/12/27 07:28:42;;;;;;;17.63;4.57;;;;;;;;;;5048993;28;20630;-83
2022/12/27 07:31:08;;;;;;;22.73;4.80;;;;;;;;;;5048764;28;20205;-85
2022/12/27 07:33:34;;;;;;;16.80;4.53;;;;;;;;;;5048052;28;20165;-85
2022/12/27 07:36:01;;;;;;;18.83;4.53;;;;;;;;;;5064618;28;20532;-85
2022/12/27 07:38:27;;;;;;;10.87;3.87;;;;;;;;;;5048857;28;20186;-85
2022/12/27 07:40:53;;;;;;;15.77;4.93;;;;;;;;;;5049387;28;20190;-85
2022/12/27 07:43:19;;;;;;;11.47;4.67;;;;;;;;;;5049590;28;20174;-83
2022/12/27 07:45:45;;;;;;;20.03;5.17;;;;;;;;;;5048880;28;20219;-86
2022/12/27 07:48:11;;;;;;;19.17;5.00;;;;;;;;;;5048558;28;20201;-84
2022/12/27 07:50:37;;;;;;;15.10;4.40;;;;;;;;;;5048121;28;20200;-81
2022/12/27 07:53:03;;;;;;;14.27;4.63;;;;;;;;;;5050204;28;20643;-83
2022/12/27 07:55:29;;;;;;;11.83;4.40;;;;;;;;;;5048560;28;20276;-83
2022/12/27 07:57:55;;;;;;;19.50;5.33;;;;;;;;;;5048895;28;20186;-81
2022/12/27 08:00:21;;;;;;;15.37;4.43;;;;;;;;;;5050244;28;20504;-83
2022/12/27 08:02:47;;;;;;;17.17;4.17;;;;;;;;;;5048386;28;20220;-86
2022/12/27 08:05:13;;;;;;;15.07;4.43;;;;;;;;;;5048927;28;20213;-84
2022/12/27 08:07:40;;;;;;;18.83;4.43;;;;;;;;;;5048097;28;20662;-82
2022/12/27 08:10:06;;;;;;;21.20;5.07;;;;;;;;;;5047171;28;20224;-83
2022/12/27 08:12:32;;;;;;;13.30;3.83;;;;;;;;;;5050041;28;20234;-84
2022/12/27 08:14:58;;;;;;;15.07;4.60;;;;;;;;;;5049450;28;20708;-85
2022/12/27 08:17:28;;;;;;;13.80;4.87;;;;;;;;;;5049212;28;20201;-83
2022/12/27 08:19:54;;;;;;;16.13;4.27;;;;;;;;;;5048618;28;20189;-84
2022/12/27 08:22:21;;;;;;;18.80;5.00;;;;;;;;;;5047249;28;20253;-85
2022/12/27 08:24:47;;;;;;;16.47;5.23;;;;;;;;;;5046994;28;20181;-84
2022/12/27 08:27:19;;;;;;;10.33;3.73;;;;;;;;;;5050812;28;20292;-82
2022/12/27 08:29:45;;;;;;;12.20;4.63;;;;;;;;;;5046459;28;20190;-84
2022/12/27 08:32:11;;;;;;;12.37;4.50;;;;;;;;;;5049186;28;20178;-81
2022/12/27 08:34:37;;;;;;;13.57;4.67;;;;;;;;;;5046479;28;20189;-84
2022/12/27 08:37:03;;;;;;;17.40;5.03;;;;;;;;;;5047503;28;20198;-85
2022/12/27 08:39:29;;;;;;;14.63;4.57;;;;;;;;;;5049286;28;20181;-82
2022/12/27 08:41:55;;;;;;;12.63;4.20;;;;;;;;;;5049265;28;20214;-85
2022/12/27 08:44:22;;;;;;;14.20;4.87;;;;;;;;;;5048407;28;20189;-84
2022/12/27 08:46:48;;;;;;;13.73;4.50;;;;;;;;;;5049818;28;20209;-84
2022/12/27 08:49:14;;;;;;;19.77;4.57;;;;;;;;;;5052207;28;20259;-85
2022/12/27 08:51:40;;;;;;;15.90;4.10;;;;;;;;;;5051631;28;20698;-85
2022/12/27 08:54:06;;;;;;;18.63;4.77;;;;;;;;;;5053834;28;20182;-83
2022/12/27 08:56:32;;;;;;;12.07;4.53;;;;;;;;;;5050992;28;20208;-84
2022/12/27 08:58:58;;;;;;;15.13;5.03;;;;;;;;;;5053047;28;20218;-85
2022/12/27 09:01:24;;;;;;;15.60;4.93;;;;;;;;;;5052655;28;20603;-85
2022/12/27 09:03:50;;;;;;;13.17;4.77;;;;;;;;;;5051866;28;20500;-82
2022/12/27 09:06:17;;;;;;;14.83;4.73;;;;;;;;;;5051802;28;20174;-83
2022/12/27 09:08:44;;;;;;;17.40;4.53;;;;;;;;;;5051496;28;20602;-85
2022/12/27 09:11:15;;;;;;;15.03;5.57;;;;;;;;;;5052933;28;20198;-81
2022/12/27 09:13:41;;;;;;;17.40;5.87;;;;;;;;;;5051525;28;20676;-83
2022/12/27 09:16:09;;;;;;;17.63;5.70;;;;;;;;;;5051673;28;20182;-83
2022/12/27 09:18:35;;;;;;;14.03;5.40;;;;;;;;;;5053231;28;20178;-85
2022/12/27 09:21:09;;;;;;;15.93;5.43;;;;;;;;;;5052738;28;20178;-83
2022/12/27 09:23:36;;;;;;;19.80;5.97;;;;;;;;;;5049363;28;20265;-84
2022/12/27 09:26:09;;;;;;;16.70;5.50;;;;;;;;;;5051691;28;20223;-82
2022/12/27 09:28:35;;;;;;;15.83;5.50;;;;;;;;;;5050803;28;20205;-85
2022/12/27 09:31:02;;;;;;;18.67;6.30;;;;;;;;;;5050131;28;20182;-82
2022/12/27 09:33:28;;;;;;;17.37;7.13;;;;;;;;;;5052027;28;20170;-82
2022/12/27 09:36:05;;;;;;;18.30;6.43;;;;;;;;;;5051960;28;20283;-83
2022/12/27 09:38:31;;;;;;;19.93;6.83;;;;;;;;;;5051054;28;20185;-84
2022/12/27 09:40:58;;;;;;;16.17;6.07;;;;;;;;;;5051912;28;20254;-81
2022/12/27 09:43:47;;;;;;;19.53;5.73;;;;;;;;;;5049861;28;20646;-85
2022/12/27 09:46:17;;;;;;;15.00;5.13;;;;;;;;;;5049229;28;20179;-82
2022/12/27 09:48:44;;;;;;;12.13;4.97;;;;;;;;;;5049047;28;20210;-84
2022/12/27 09:51:16;;;;;;;16.80;5.50;;;;;;;;;;5051074;28;20182;-81
2022/12/27 09:53:43;;;;;;;15.20;5.97;;;;;;;;;;5050567;28;20182;-85
2022/12/27 09:56:11;;;;;;;15.27;5.50;;;;;;;;;;5047834;28;20205;-84
2022/12/27 09:58:48;;;;;;;13.30;5.07;;;;;;;;;;5052201;28;20182;-84
2022/12/27 10:01:30;;;;;;;13.10;5.43;;;;;;;;;;5036254;28;20186;-83
2022/12/27 10:03:57;;;;;;;18.17;5.90;;;;;;;;;;5052363;28;20175;-81
2022/12/27 10:06:41;;;;;;;15.93;5.90;;;;;;;;;;5063771;28;20183;-83
2022/12/27 10:09:28;;;;;;;16.87;5.93;;;;;;;;;;5072625;28;20182;-82
2022/12/27 10:11:57;;;;;;;19.03;6.07;;;;;;;;;;5068165;28;20718;-80
2022/12/27 10:14:23;;;;;;;22.33;7.37;;;;;;;;;;5071452;28;20178;-80
2022/12/27 10:16:56;;;;;;;16.23;6.27;;;;;;;;;;5070839;28;20194;-83
2022/12/27 10:19:38;;;;;;;11.13;5.87;;;;;;;;;;5051807;28;20228;-83
2022/12/27 10:22:12;;;;;;;14.07;6.43;;;;;;;;;;5048581;28;20546;-83
2022/12/27 10:24:38;;;;;;;17.43;6.37;;;;;;;;;;5048495;28;20219;-85
2022/12/27 10:27:10;;;;;;;18.93;6.83;;;;;;;;;;5052272;28;20308;-82
2022/12/27 10:29:36;;;;;;;19.40;6.83;;;;;;;;;;5050568;28;20182;-84
2022/12/27 10:32:03;;;;;;;15.60;7.07;;;;;;;;;;5051275;28;20186;-81
2022/12/27 10:34:29;;;;;;;18.83;10.03;;;;;;;;;;5050008;28;20201;-86
2022/12/27 10:36:55;;;;;;;15.77;7.97;;;;;;;;;;5049543;28;20618;-85
2022/12/27 10:39:26;;;;;;;14.23;7.73;;;;;;;;;;5051166;28;20228;-83
2022/12/27 10:42:01;;;;;;;12.70;6.63;;;;;;;;;;5049276;28;20212;-85
2022/12/27 10:44:28;;;;;;;12.13;6.40;;;;;;;;;;5050383;28;20272;-82
2022/12/27 10:46:55;;;;;;;10.57;5.63;;;;;;;;;;5049802;28;20221;-83
2022/12/27 10:49:24;;;;;;;10.50;5.37;;;;;;;;;;5050748;28;20265;-83
2022/12/27 10:51:51;;;;;;;12.27;5.30;;;;;;;;;;5049085;28;20180;-82
2022/12/27 10:54:22;;;;;;;9.87;5.37;;;;;;;;;;5050626;28;20196;-82
2022/12/27 10:56:48;;;;;;;16.30;5.63;;;;;;;;;;5048877;28;20185;-82
2022/12/27 10:59:16;;;;;;;7.17;4.60;;;;;;;;;;5050009;28;20183;-85
2022/12/27 11:01:43;;;;;;;8.07;5.33;;;;;;;;;;5049381;28;20209;-84
2022/12/27 11:04:10;;;;;;;12.43;4.80;;;;;;;;;;5031657;28;20593;-82
2022/12/27 11:06:36;;;;;;;16.83;5.20;;;;;;;;;;5045815;28;20170;-83
2022/12/27 11:09:21;;;;;;;11.73;5.37;;;;;;;;;;5047811;28;20190;-84
2022/12/27 11:11:47;;;;;;;13.27;5.10;;;;;;;;;;5048685;28;20248;-83
2022/12/27 11:14:16;;;;;;;11.27;4.70;;;;;;;;;;5049737;28;20276;-81
2022/12/27 11:16:43;;;;;;;11.77;4.73;;;;;;;;;;5049538;28;20182;-85
2022/12/27 11:19:18;;;;;;;11.73;4.73;;;;;;;;;;5032318;28;20185;-82
2022/12/27 11:21:44;;;;;;;11.37;4.40;;;;;;;;;;5049359;28;20638;-83
2022/12/27 11:24:13;;;;;;;12.10;3.87;;;;;;;;;;5067064;28;20185;-82
2022/12/27 11:26:58;;;;;;;12.17;4.30;;;;;;;;;;5047779;28;20222;-81
2022/12/27 11:29:26;;;;;;;12.40;4.80;;;;;;;;;;5047889;28;20729;-83
2022/12/27 11:31:53;;;;;;;14.33;5.00;;;;;;;;;;5048395;28;20181;-84
2022/12/27 11:34:29;;;;;;;13.80;4.93;;;;;;;;;;5048265;28;20193;-85
2022/12/27 11:37:02;;;;;;;13.87;5.20;;;;;;;;;;5047573;28;20173;-85
2022/12/27 11:39:40;;;;;;;14.77;6.03;;;;;;;;;;5044968;28;20209;-86
2022/12/27 11:42:10;;;;;;;15.57;5.30;;;;;;;;;;5049577;28;20223;-81
2022/12/27 11:44:38;;;;;;;16.57;5.13;;;;;;;;;;5048764;28;20247;-82
2022/12/27 11:47:10;;;;;;;15.43;6.13;;;;;;;;;;5048994;28;20213;-83
2022/12/27 11:49:39;;;;;;;13.57;4.70;;;;;;;;;;5049050;28;20216;-81
2022/12/27 11:52:21;;;;;;;13.50;5.77;;;;;;;;;;5047137;28;20610;-86
2022/12/27 11:54:53;;;;;;;12.80;5.13;;;;;;;;;;5045240;28;20174;-81
2022/12/27 11:57:19;;;;;;;10.93;5.13;;;;;;;;;;5048043;28;20274;-83
2022/12/27 12:00:05;;;;;;;13.67;4.80;;;;;;;;;;5048361;28;20185;-81
2022/12/27 12:02:50;;;;;;;11.73;4.80;;;;;;;;;;5047610;28;20189;-83
2022/12/27 12:05:26;;;;;;;14.40;4.80;;;;;;;;;;5049427;28;20182;-82
2022/12/27 12:07:52;;;;;;;14.50;4.50;;;;;;;;;;5048276;28;20220;-82
2022/12/27 12:10:24;;;;;;;15.00;5.00;;;;;;;;;;5048499;28;20682;-85
2022/12/27 12:12:54;;;;;;;15.60;7.23;;;;;;;;;;5047946;28;20198;-81
2022/12/27 12:15:20;;;;;;;10.97;5.70;;;;;;;;;;5049960;28;20265;-86
2022/12/27 12:17:49;;;;;;;12.23;4.43;;;;;;;;;;5048136;28;20677;-85
2022/12/27 12:20:33;;;;;;;13.80;4.90;;;;;;;;;;5049943;28;20182;-83
2022/12/27 12:23:08;;;;;;;15.10;5.23;;;;;;;;;;5052312;28;20217;-83
2022/12/27 12:25:33;;;;;;;15.30;5.47;;;;;;;;;;5052938;28;20245;-83
2022/12/27 12:27:59;;;;;;;12.87;5.30;;;;;;;;;;5051191;28;20679;-82
2022/12/27 12:30:39;;;;;;;10.07;5.00;;;;;;;;;;5051779;28;20186;-84
2022/12/27 12:33:05;;;;;;;11.27;5.03;;;;;;;;;;5052025;28;20181;-82
2022/12/27 12:35:46;;;;;;;14.80;5.10;;;;;;;;;;5052816;28;20536;-85
2022/12/27 12:38:22;;;;;;;12.03;5.50;;;;;;;;;;5052779;28;20185;-83
2022/12/27 12:41:07;;;;;;;13.13;5.63;;;;;;;;;;5052708;28;20185;-83
2022/12/27 12:43:33;;;;;;;11.87;4.77;;;;;;;;;;5052842;28;20657;-85
2022/12/27 12:46:02;;;;;;;11.90;5.03;;;;;;;;;;5052207;28;20178;-85
2022/12/27 12:48:28;;;;;;;13.03;6.37;;;;;;;;;;5051762;28;20201;-83
2022/12/27 12:51:12;;;;;;;17.20;6.53;;;;;;;;;;5051832;28;20628;-82
2022/12/27 12:53:53;;;;;;;12.70;5.77;;;;;;;;;;5051346;28;20235;-84
2022/12/27 12:56:22;;;;;;;17.80;6.10;;;;;;;;;;5052799;28;20188;-85
2022/12/27 12:58:55;;;;;;;11.63;5.77;;;;;;;;;;5051802;28;20186;-82
2022/12/27 13:01:43;;;;;;;15.33;5.57;;;;;;;;;;5034211;28;20190;-85
2022/12/27 13:04:18;;;;;;;13.53;5.20;;;;;;;;;;5050257;28;20352;-81
2022/12/27 13:07:10;;;;;;;12.23;5.67;;;;;;;;;;5047796;28;20177;-84
2022/12/27 13:10:05;;;;;;;12.60;5.90;;;;;;;;;;5071556;28;20196;-84
2022/12/27 13:12:36;;;;;;;10.17;5.57;;;;;;;;;;4989236;28;20552;-84
2022/12/27 13:15:23;;;;;;;19.50;6.70;;;;;;;;;;5005384;28;20203;-84
2022/12/27 13:17:49;;;;;;;12.73;5.70;;;;;;;;;;4972405;28;20689;-84
2022/12/27 13:20:21;;;;;;;15.43;6.60;;;;;;;;;;4995702;28;20187;-81
2022/12/27 13:23:02;;;;;;;18.80;6.57;;;;;;;;;;5008126;28;20195;-84
2022/12/27 13:25:36;;;;;;;13.67;6.30;;;;;;;;;;4971443;28;20237;-82
2022/12/27 13:28:21;;;;;;;15.37;6.37;;;;;;;;;;4973698;28;20304;-81
2022/12/27 13:30:59;;;;;;;15.17;6.23;;;;;;;;;;4988447;28;20585;-83
2022/12/27 13:33:25;;;;;;;15.87;7.40;;;;;;;;;;4980497;28;20183;-79
2022/12/27 13:35:51;;;;;;;13.67;7.73;;;;;;;;;;5007850;28;20231;-80
2022/12/27 13:38:16;;;;;;;19.90;7.00;;;;;;;;;;4982106;28;20187;-81
2022/12/27 13:40:48;;;;;;;16.17;6.70;;;;;;;;;;5014727;28;20187;-81
2022/12/27 13:43:14;;;;;;;14.43;6.97;;;;;;;;;;4997298;28;20341;-84
2022/12/27 13:45:46;;;;;;;16.00;7.53;;;;;;;;;;4995384;28;20340;-83
2022/12/27 13:48:31;;;;;;;13.70;7.07;;;;;;;;;;4976252;28;20280;-85
2022/12/27 13:51:12;;;;;;;15.93;7.73;;;;;;;;;;5052033;28;20508;-85
2022/12/27 13:53:50;;;;;;;16.23;7.57;;;;;;;;;;5053703;28;20198;-83
2022/12/27 13:56:19;;;;;;;15.67;8.30;;;;;;;;;;5055388;28;20180;-82
2022/12/27 13:59:11;;;;;;;15.97;7.20;;;;;;;;;;5048742;28;20192;-84
2022/12/27 14:01:56;;;;;;;13.73;7.53;;;;;;;;;;5019413;28;20201;-82
2022/12/27 14:04:41;;;;;;;14.10;7.90;;;;;;;;;;5017084;28;20677;-83
2022/12/27 14:07:18;;;;;;;13.10;7.17;;;;;;;;;;5015602;28;20587;-82
2022/12/27 14:09:49;;;;;;;16.67;7.67;;;;;;;;;;5031345;28;20178;-84
2022/12/27 14:12:38;;;;;;;16.97;8.27;;;;;;;;;;5014605;28;20225;-82
2022/12/27 14:15:06;;;;;;;15.77;8.23;;;;;;;;;;5009753;28;20710;-82
2022/12/27 14:17:32;;;;;;;22.47;7.63;;;;;;;;;;5007003;28;20214;-83
2022/12/27 14:19:58;;;;;;;14.80;9.10;;;;;;;;;;5011419;28;20305;-82
2022/12/27 14:22:27;;;;;;;20.13;11.23;;;;;;;;;;5030666;28;20341;-83
2022/12/27 14:25:19;;;;;;;17.27;9.60;;;;;;;;;;5029751;28;20186;-82
2022/12/27 14:28:03;;;;;;;20.37;8.77;;;;;;;;;;4990952;28;20219;-83
2022/12/27 14:30:32;;;;;;;15.13;6.97;;;;;;;;;;4975199;28;20182;-83
2022/12/27 14:33:00;;;;;;;15.80;7.63;;;;;;;;;;4973298;28;20192;-85
2022/12/27 14:35:26;;;;;;;17.37;7.10;;;;;;;;;;4990085;28;20183;-83
2022/12/27 14:38:11;;;;;;;17.27;7.40;;;;;;;;;;4974384;28;20282;-84
2022/12/27 14:40:52;;;;;;;11.73;7.00;;;;;;;;;;4980359;28;20183;-85
2022/12/27 14:43:26;;;;;;;11.83;7.57;;;;;;;;;;4993022;28;20257;-84
2022/12/27 14:46:22;;;;;;;16.80;7.90;;;;;;;;;;4986376;28;20215;-84
2022/12/27 14:49:00;;;;;;;19.63;8.83;;;;;;;;;;4935982;29;20250;-85
2022/12/27 14:51:44;;;;;;;15.90;8.40;;;;;;;;;;4937670;28;20190;-84
2022/12/27 14:54:10;;;;;;;18.47;8.37;;;;;;;;;;4941677;28;20185;-85
2022/12/27 14:56:59;;;;;;;15.63;8.07;;;;;;;;;;4941732;29;20340;-83
2022/12/27 14:59:54;;;;;;;19.60;8.30;;;;;;;;;;4941618;28;20194;-85
2022/12/27 15:02:33;;;;;;;13.80;7.80;;;;;;;;;;4920649;29;20194;-84
2022/12/27 15:05:10;;;;;;;11.67;6.77;;;;;;;;;;4961594;28;20658;-84
2022/12/27 15:07:45;;;;;;;17.87;8.47;;;;;;;;;;4993829;28;20675;-84
2022/12/27 15:10:11;;;;;;;15.13;6.93;;;;;;;;;;4992722;28;20615;-85
2022/12/27 15:12:42;;;;;;;12.43;7.10;;;;;;;;;;4979059;28;20663;-83
2022/12/27 15:15:17;;;;;;;15.57;7.10;;;;;;;;;;5003351;28;20186;-82
2022/12/27 15:17:46;;;;;;;15.50;6.80;;;;;;;;;;4986688;28;20189;-88
2022/12/27 15:20:31;;;;;;;11.27;6.27;;;;;;;;;;4988598;28;20195;-86
2022/12/27 15:23:06;;;;;;;17.33;6.30;;;;;;;;;;4989727;28;20207;-84
2022/12/27 15:25:35;;;;;;;12.97;6.67;;;;;;;;;;5021142;28;20212;-87
2022/12/27 15:28:10;;;;;;;15.80;6.23;;;;;;;;;;5050134;28;20197;-84
2022/12/27 15:30:42;;;;;;;12.80;6.13;;;;;;;;;;5050231;28;20205;-86
2022/12/27 15:33:08;;;;;;;13.63;6.97;;;;;;;;;;5049869;28;20212;-82
2022/12/27 15:35:40;;;;;;;13.33;7.03;;;;;;;;;;5050139;28;20185;-85
2022/12/27 15:38:25;;;;;;;11.87;7.10;;;;;;;;;;5049641;28;20707;-85
2022/12/27 15:40:54;;;;;;;14.07;7.30;;;;;;;;;;5049121;28;20254;-85
2022/12/27 15:43:23;;;;;;;17.67;7.23;;;;;;;;;;5048055;28;20235;-82
2022/12/27 15:45:58;;;;;;;13.80;7.33;;;;;;;;;;5050534;28;20535;-86
2022/12/27 15:48:42;;;;;;;13.07;7.20;;;;;;;;;;5062862;28;20296;-87
2022/12/27 15:51:11;;;;;;;16.10;7.60;;;;;;;;;;5058855;28;20244;-83
2022/12/27 15:53:40;;;;;;;16.83;7.67;;;;;;;;;;5059094;28;20249;-86
2022/12/27 15:56:14;;;;;;;16.10;8.10;;;;;;;;;;5061036;28;20277;-85
2022/12/27 15:58:40;;;;;;;19.97;7.23;;;;;;;;;;5053678;28;20186;-82
2022/12/27 16:01:16;;;;;;;16.73;7.80;;;;;;;;;;5051999;28;20200;-85
2022/12/27 16:03:43;;;;;;;22.43;8.67;;;;;;;;;;5066135;28;20177;-86
2022/12/27 16:06:29;;;;;;;14.53;7.87;;;;;;;;;;5082563;28;20225;-84
2022/12/27 16:09:14;;;;;;;14.73;7.70;;;;;;;;;;5052171;28;20240;-85
2022/12/27 16:11:58;;;;;;;16.67;7.10;;;;;;;;;;5053286;28;20592;-84
2022/12/27 16:14:28;;;;;;;13.27;7.07;;;;;;;;;;5053076;28;20247;-85
2022/12/27 16:16:58;;;;;;;16.13;6.67;;;;;;;;;;5051979;28;20197;-83
2022/12/27 16:19:24;;;;;;;12.33;6.83;;;;;;;;;;5051979;28;20289;-82
2022/12/27 16:21:50;;;;;;;17.73;7.50;;;;;;;;;;5053573;28;20186;-83
2022/12/27 16:24:22;;;;;;;11.00;6.73;;;;;;;;;;5048541;28;20276;-86
2022/12/27 16:27:06;;;;;;;18.30;7.57;;;;;;;;;;5049399;28;20225;-85